Time;durP1;ratioP1;P1;durP2;ratioP2;P2;SDS_P1;SDS_P2;PMS_P1;PMS_P2;Temp;Humidity;BMP_temperature;BMP_pressure;BME280_temperature;BME280_humidity;BME280_pressure;Samples;Min_cycle;Max_cycle;Signal;HPM_P1;HPM_P2
2022/05/04 00:00:17;;;;;;;;;10.00;10.00;;;;;19.96;37.95;101375.44;5079335;28;45353;-56
2022/05/04 00:02:42;;;;;;;;;11.75;9.25;;;;;19.95;38.40;101382.50;5078893;28;45216;-55
2022/05/04 00:05:09;;;;;;;;;12.75;10.50;;;;;19.95;38.43;101371.13;5079172;28;45563;-57
2022/05/04 00:07:34;;;;;;;;;13.00;13.00;;;;;19.96;38.16;101376.31;5078647;27;47234;-52
2022/05/04 00:10:00;;;;;;;;;13.00;12.25;;;;;19.95;38.34;101374.59;5078633;28;45425;-54
2022/05/04 00:12:26;;;;;;;;;15.00;13.00;;;;;19.94;38.54;101380.78;5078788;27;45835;-57
2022/05/04 00:14:52;;;;;;;;;18.50;13.00;;;;;19.94;38.80;101380.78;5079105;27;45352;-50
2022/05/04 00:17:18;;;;;;;;;15.25;13.25;;;;;19.93;38.84;101373.81;5078528;27;45455;-51
2022/05/04 00:19:43;;;;;;;;;12.75;12.25;;;;;19.93;38.75;101373.81;5078644;27;45448;-55
2022/05/04 00:22:09;;;;;;;;;14.00;12.25;;;;;19.94;38.87;101370.25;5078698;28;45429;-52
2022/05/04 00:24:34;;;;;;;;;12.50;12.50;;;;;19.93;38.83;101369.44;5078965;27;45397;-55
2022/05/04 00:26:59;;;;;;;;;15.50;12.50;;;;;19.93;38.54;101358.91;5078168;28;49501;-55
2022/05/04 00:29:25;;;;;;;;;13.75;12.75;;;;;19.93;38.19;101353.66;5078434;27;45316;-53
2022/05/04 00:31:50;;;;;;;;;14.50;11.50;;;;;19.93;38.87;101352.78;5078836;28;46947;-57
2022/05/04 00:34:16;;;;;;;;;14.25;12.75;;;;;19.91;38.81;101355.47;5078954;28;45524;-54
2022/05/04 00:36:41;;;;;;;;;11.50;9.00;;;;;19.94;38.58;101354.47;5078119;28;55692;-57
2022/05/04 00:39:06;;;;;;;;;15.25;12.00;;;;;19.92;38.54;101345.78;5078217;28;50760;-49
2022/05/04 00:41:32;;;;;;;;;17.00;13.25;;;;;19.91;38.78;101342.31;5078197;28;47324;-57
2022/05/04 00:43:57;;;;;;;;;14.00;9.50;;;;;19.94;38.34;101349.22;5078860;27;45365;-54
2022/05/04 00:46:23;;;;;;;;;14.50;13.50;;;;;19.93;38.75;101347.50;5078565;27;48395;-49
2022/05/04 00:48:48;;;;;;;;;17.50;14.00;;;;;19.93;38.31;101355.41;5078429;27;45281;-54
2022/05/04 00:51:14;;;;;;;;;13.50;11.50;;;;;19.92;38.74;101349.31;5078477;27;45431;-56
2022/05/04 00:53:41;;;;;;;;;18.25;14.00;;;;;19.93;38.37;101351.00;5078618;27;45416;-54
2022/05/04 00:56:11;;;;;;;;;16.50;13.00;;;;;19.92;38.35;101351.06;5078196;27;46395;-53
2022/05/04 00:58:56;;;;;;;;;13.75;11.50;;;;;19.93;38.84;101352.78;5078260;27;45402;-53
2022/05/04 01:01:30;;;;;;;;;15.25;13.25;;;;;19.91;38.57;101355.47;5078403;27;45393;-54
2022/05/04 01:03:57;;;;;;;;;20.50;16.50;;;;;19.91;38.81;101355.47;5078371;27;45424;-45
2022/05/04 01:06:23;;;;;;;;;15.25;14.00;;;;;19.89;38.83;101353.84;5078330;28;46314;-54
2022/05/04 01:08:50;;;;;;;;;16.75;15.00;;;;;19.86;38.74;101359.25;5077191;27;45364;-57
2022/05/04 01:11:16;;;;;;;;;13.25;13.00;;;;;19.89;38.47;101361.75;5078228;27;45409;-57
2022/05/04 01:13:41;;;;;;;;;12.75;12.75;;;;;19.88;38.89;101360.03;5078244;27;45332;-54
2022/05/04 01:16:07;;;;;;;;;16.75;13.75;;;;;19.87;38.31;101351.25;5077874;27;45341;-56
2022/05/04 01:18:32;;;;;;;;;17.25;13.00;;;;;19.87;39.01;101353.06;5077825;28;45421;-52
2022/05/04 01:20:58;;;;;;;;;18.75;15.25;;;;;19.87;38.64;101355.69;5077817;28;45271;-55
2022/05/04 01:23:26;;;;;;;;;13.25;13.00;;;;;19.85;38.34;101354.88;5078455;27;45329;-57
2022/05/04 01:25:53;;;;;;;;;14.25;13.00;;;;;19.88;38.44;101362.66;5077888;28;46343;-57
2022/05/04 01:28:19;;;;;;;;;16.00;12.00;;;;;19.86;38.98;101359.25;5077767;28;45275;-58
2022/05/04 01:30:44;;;;;;;;;14.50;14.50;;;;;19.84;38.44;101355.78;5076546;28;45463;-58
2022/05/04 01:33:10;;;;;;;;;15.00;14.25;;;;;19.86;38.82;101361.88;5077986;27;45499;-56
2022/05/04 01:35:35;;;;;;;;;13.75;12.25;;;;;19.85;38.59;101355.69;5076223;28;45883;-56
2022/05/04 01:38:00;;;;;;;;;14.50;11.50;;;;;19.86;38.57;101354.81;5077485;28;45403;-54
2022/05/04 01:40:26;;;;;;;;;14.00;13.00;;;;;19.84;38.34;101354.03;5077567;28;52985;-55
2022/05/04 01:42:51;;;;;;;;;11.50;11.50;;;;;19.85;38.61;101360.97;5077566;28;45378;-56
2022/05/04 01:45:16;;;;;;;;;17.75;15.50;;;;;19.85;38.58;101357.50;5077113;28;45343;-59
2022/05/04 01:47:48;;;;;;;;;14.00;13.25;;;;;19.85;38.87;101352.22;5077413;27;45430;-58
2022/05/04 01:50:13;;;;;;;;;16.00;16.00;;;;;19.82;38.53;101350.59;5077499;27;45449;-55
2022/05/04 01:52:39;;;;;;;;;15.75;14.00;;;;;19.84;38.75;101353.16;5077620;28;45356;-52
2022/05/04 01:55:05;;;;;;;;;15.75;15.75;;;;;19.84;38.76;101342.63;5077317;28;47157;-56
2022/05/04 01:57:31;;;;;;;;;13.25;13.25;;;;;19.83;38.59;101357.56;5077325;27;45964;-55
2022/05/04 01:59:57;;;;;;;;;12.75;12.75;;;;;19.82;38.97;101353.22;5077766;27;45337;-56
2022/05/04 02:02:23;;;;;;;;;16.00;14.25;;;;;19.82;38.98;101361.13;5077746;28;45518;-55
2022/05/04 02:04:49;;;;;;;;;15.25;14.50;;;;;19.83;38.64;101354.06;5077135;28;45338;-56
2022/05/04 02:07:14;;;;;;;;;18.00;14.75;;;;;19.82;38.89;101361.13;5076682;28;45807;-51
2022/05/04 02:09:42;;;;;;;;;22.50;16.50;;;;;19.81;39.10;101348.88;5077214;28;45377;-59
2022/05/04 02:12:08;;;;;;;;;15.25;14.50;;;;;19.80;38.52;101357.69;5077456;27;45728;-56
2022/05/04 02:14:34;;;;;;;;;17.50;13.25;;;;;19.81;38.60;101356.78;5076951;27;45497;-55
2022/05/04 02:17:00;;;;;;;;;14.75;14.00;;;;;19.82;38.58;101350.59;5077091;27;45413;-57
2022/05/04 02:19:25;;;;;;;;;14.50;14.50;;;;;19.76;38.78;101341.19;5076118;27;45420;-58
2022/05/04 02:21:51;;;;;;;;;16.50;16.50;;;;;19.82;38.40;101352.34;5077150;28;45404;-59
2022/05/04 02:24:16;;;;;;;;;14.25;14.25;;;;;19.81;39.04;101361.16;5076744;28;46182;-55
2022/05/04 02:26:42;;;;;;;;;15.00;12.50;;;;;19.81;38.85;101359.41;5076809;27;45268;-54
2022/05/04 02:29:07;;;;;;;;;15.00;13.50;;;;;19.81;39.12;101353.28;5077062;28;45530;-57
2022/05/04 02:31:33;;;;;;;;;15.25;14.25;;;;;19.80;38.63;101348.94;5076987;27;45314;-58
2022/05/04 02:33:58;;;;;;;;;18.50;17.00;;;;;19.80;38.91;101347.19;5076902;28;45941;-57
2022/05/04 02:39:07;;;;;;;;;17.50;14.75;;;;;19.74;38.81;101343.03;5076750;28;45463;-56
2022/05/04 02:41:33;;;;;;;;;23.00;15.25;;;;;19.78;38.81;101351.66;5076663;28;45520;-51
2022/05/04 02:44:00;;;;;;;;;13.25;13.25;;;;;19.77;38.65;101348.19;5076833;27;45974;-52
2022/05/04 02:46:28;;;;;;;;;18.25;15.00;;;;;19.76;38.94;101353.47;5076977;28;45851;-52
2022/05/04 02:48:54;;;;;;;;;17.50;15.50;;;;;19.77;39.01;101356.06;5076773;27;45309;-55
2022/05/04 02:51:19;;;;;;;;;17.25;13.50;;;;;19.76;38.96;101345.59;5076667;28;45215;-54
2022/05/04 02:53:44;;;;;;;;;18.00;13.50;;;;;19.76;38.79;101346.47;5076390;28;47214;-54
2022/05/04 02:56:10;;;;;;;;;18.25;16.25;;;;;19.71;39.23;101331.81;5075153;28;45449;-58
2022/05/04 02:58:36;;;;;;;;;19.00;15.50;;;;;19.76;38.88;101341.19;5076584;28;45420;-51
2022/05/04 03:04:07;;;;;;;;;15.50;14.00;;;;;19.75;38.75;101328.97;5076753;28;45849;-57
2022/05/04 03:06:41;;;;;;;;;18.75;16.00;;;;;19.75;38.74;101336.88;5076426;27;45424;-57
2022/05/04 03:09:10;;;;;;;;;18.00;13.75;;;;;19.75;38.67;101330.72;5076540;27;45322;-55
2022/05/04 03:11:55;;;;;;;;;33.75;29.00;;;;;19.74;38.67;101332.53;5076623;27;45354;-54
2022/05/04 03:14:23;;;;;;;;;32.25;24.75;;;;;19.73;38.70;101336.06;5076120;27;45339;-53
2022/05/04 03:16:49;;;;;;;;;32.75;27.00;;;;;19.71;39.21;101332.66;5076303;27;45919;-55
2022/05/04 03:19:14;;;;;;;;;26.50;21.50;;;;;19.72;39.06;101330.88;5076463;27;45341;-56
2022/05/04 03:21:40;;;;;;;;;35.25;30.75;;;;;19.71;39.02;101332.66;5076320;27;45478;-54
2022/05/04 03:24:06;;;;;;;;;33.50;28.50;;;;;19.71;38.69;101326.53;5075579;27;45510;-58
2022/05/04 03:26:32;;;;;;;;;35.75;31.75;;;;;19.71;39.03;101324.75;5076305;27;45630;-57
2022/05/04 03:28:57;;;;;;;;;41.25;33.00;;;;;19.72;39.29;101329.09;5076528;27;45826;-57
2022/05/04 03:31:23;;;;;;;;;45.00;34.75;;;;;19.69;39.10;101329.22;5077307;28;45314;-58
2022/05/04 03:33:48;;;;;;;;;38.50;31.25;;;;;19.71;39.30;101326.53;5079278;27;50388;-56
2022/05/04 03:36:13;;;;;;;;;39.25;33.00;;;;;19.69;38.69;101323.97;5079530;27;45440;-58
2022/05/04 03:38:39;;;;;;;;;44.50;33.50;;;;;19.70;38.91;101320.41;5079574;28;45326;-54
2022/05/04 03:41:04;;;;;;;;;40.00;33.75;;;;;19.70;38.71;101325.69;5079484;28;45416;-58
2022/05/04 03:43:30;;;;;;;;;32.75;30.75;;;;;19.71;38.71;101324.75;5079762;27;45369;-58
2022/05/04 03:46:10;;;;;;;;;40.25;31.50;;;;;19.70;38.70;101320.41;5079389;27;45337;-54
2022/05/04 03:48:35;;;;;;;;;36.25;31.00;;;;;19.71;38.67;101319.50;5079570;28;45405;-55
2022/05/04 03:51:00;;;;;;;;;35.33;30.67;;;;;19.70;39.04;101319.56;5079836;28;45435;-52
2022/05/04 03:53:25;;;;;;;;;35.33;31.00;;;;;19.71;38.88;101326.53;5079082;28;46613;-56
2022/05/04 03:55:54;;;;;;;;;39.00;31.25;;;;;19.73;39.03;101322.06;5079158;28;45416;-58
2022/05/04 03:58:19;;;;;;;;;33.00;28.75;;;;;19.72;38.63;101326.47;5079147;28;45324;-58
2022/05/04 04:00:45;;;;;;;;;33.33;26.00;;;;;19.73;38.75;101324.72;5079151;28;45590;-59
2022/05/04 04:03:10;;;;;;;;;32.25;27.50;;;;;19.73;38.63;101327.34;5079042;28;45341;-57
2022/05/04 04:05:35;;;;;;;;;29.00;26.33;;;;;19.73;39.07;101324.72;5078760;28;51540;-57
2022/05/04 04:08:01;;;;;;;;;28.67;24.00;;;;;19.73;38.80;101324.72;5078986;28;50128;-57
2022/05/04 04:10:26;;;;;;;;;31.00;28.00;;;;;19.72;38.91;101326.47;5079050;27;45157;-58
2022/05/04 04:12:51;;;;;;;;;25.00;22.67;;;;;19.72;38.96;101318.56;5078384;28;58847;-55
2022/05/04 04:15:17;;;;;;;;;28.75;25.75;;;;;19.71;38.84;101316.03;5078725;28;45308;-56
2022/05/04 04:17:42;;;;;;;;;28.50;26.50;;;;;19.71;38.79;101316.88;5079063;27;45350;-57
2022/05/04 04:22:52;;;;;;;;;26.25;20.00;;;;;19.71;38.89;101322.13;5078718;28;45326;-58
2022/05/04 04:25:17;;;;;;;;;25.50;24.00;;;;;19.69;38.86;101331.00;5078746;27;45413;-55
2022/05/04 04:27:43;;;;;;;;;22.75;18.75;;;;;19.69;38.31;101329.22;5078838;28;45289;-54
2022/05/04 04:30:08;;;;;;;;;20.67;19.00;;;;;19.69;38.78;101329.22;5078736;27;45216;-55
2022/05/04 04:32:34;;;;;;;;;24.75;23.00;;;;;19.69;38.48;101328.38;5078939;28;46068;-54
2022/05/04 04:34:59;;;;;;;;;25.00;21.50;;;;;19.66;38.63;101329.38;5078484;28;45406;-53
2022/05/04 04:37:24;;;;;;;;;21.75;20.25;;;;;19.67;38.51;101325.84;5078670;28;45437;-57
2022/05/04 04:39:50;;;;;;;;;22.75;20.25;;;;;19.67;39.00;101330.22;5078848;27;45432;-55
2022/05/04 04:42:16;;;;;;;;;20.67;19.00;;;;;19.65;38.91;101321.53;5077361;28;45466;-58
2022/05/04 04:44:41;;;;;;;;;21.75;21.75;;;;;19.65;38.95;101330.31;5078300;27;45890;-58
2022/05/04 04:47:07;;;;;;;;;21.75;19.00;;;;;19.64;38.54;101331.22;5078586;27;45370;-55
2022/05/04 04:49:32;;;;;;;;;29.75;25.75;;;;;19.63;38.95;101335.59;5078968;27;45298;-55
2022/05/04 04:51:57;;;;;;;;;19.00;17.00;;;;;19.63;38.54;101340.03;5077962;28;53958;-58
2022/05/04 04:54:23;;;;;;;;;23.00;19.75;;;;;19.63;38.92;101346.13;5078233;28;45468;-57
2022/05/04 04:56:48;;;;;;;;;22.50;22.50;;;;;19.63;38.46;101342.66;5078430;28;45408;-55
2022/05/04 04:59:13;;;;;;;;;18.75;17.50;;;;;19.62;38.48;101333.91;5078475;28;45554;-58
2022/05/04 05:01:39;;;;;;;;;22.67;20.33;;;;;19.62;38.93;101338.31;5078050;28;46293;-55
2022/05/04 05:04:04;;;;;;;;;21.00;18.75;;;;;19.61;38.56;101342.72;5078579;28;45299;-56
2022/05/04 05:06:30;;;;;;;;;28.33;20.00;;;;;19.60;38.57;101337.53;5078181;28;47446;-56
2022/05/04 05:08:55;;;;;;;;;16.50;16.50;;;;;19.58;38.50;101334.97;5078536;28;45223;-56
2022/05/04 05:11:21;;;;;;;;;21.75;18.50;;;;;19.61;39.01;101336.59;5077910;28;45352;-55
2022/05/04 05:16:30;;;;;;;;;17.75;17.75;;;;;19.61;38.77;101347.13;5078044;28;45245;-53
2022/05/04 05:18:55;;;;;;;;;19.33;17.33;;;;;19.61;38.75;101348.00;5077737;27;48618;-56
2022/05/04 05:21:20;;;;;;;;;18.00;15.33;;;;;19.62;39.03;101354.94;5077624;28;48922;-52
2022/05/04 05:23:46;;;;;;;;;20.33;18.67;;;;;19.62;38.55;101349.66;5077468;28;49702;-56
2022/05/04 05:26:11;;;;;;;;;15.75;14.50;;;;;19.59;38.90;101347.19;5077777;28;45408;-58
2022/05/04 05:28:36;;;;;;;;;21.00;16.00;;;;;19.64;38.91;101347.00;5077687;28;52884;-58
2022/05/04 05:31:03;;;;;;;;;17.75;15.75;;;;;19.63;38.88;101358.44;5077685;28;46004;-59
2022/05/04 05:33:28;;;;;;;;;17.25;15.00;;;;;19.64;38.73;101362.78;5077735;28;45190;-57
2022/05/04 05:35:53;;;;;;;;;19.50;18.25;;;;;19.63;38.38;101361.06;5077803;28;45732;-58
2022/05/04 05:38:19;;;;;;;;;19.50;17.50;;;;;19.62;38.94;101354.09;5077836;27;45611;-54
2022/05/04 05:40:44;;;;;;;;;21.25;17.00;;;;;19.62;38.81;101364.59;5077497;27;46273;-54
2022/05/04 05:43:10;;;;;;;;;15.50;13.50;;;;;19.63;38.79;101366.31;5077553;28;45319;-49
2022/05/04 05:45:35;;;;;;;;;15.50;14.75;;;;;19.63;38.90;101361.06;5077938;28;45366;-55
2022/05/04 05:48:00;;;;;;;;;17.75;15.50;;;;;19.62;38.76;101354.09;5076499;28;45552;-54
2022/05/04 05:50:26;;;;;;;;;16.50;14.25;;;;;19.63;38.79;101361.91;5077291;28;45370;-56
2022/05/04 05:52:51;;;;;;;;;20.25;16.50;;;;;19.63;38.82;101358.44;5077378;27;45322;-56
2022/05/04 05:55:17;;;;;;;;;18.50;16.50;;;;;19.63;38.49;101371.56;5077208;27;45453;-58
2022/05/04 05:57:42;;;;;;;;;22.25;15.75;;;;;19.63;38.69;101376.84;5077609;27;45573;-58
2022/05/04 06:00:08;;;;;;;;;25.33;22.00;;;;;19.62;38.53;101370.72;5077113;28;57554;-60
2022/05/04 06:02:33;;;;;;;;;23.00;16.75;;;;;19.60;38.69;101369.06;5077078;28;45416;-56
2022/05/04 06:04:59;;;;;;;;;17.25;15.25;;;;;19.60;38.51;101367.31;5077163;28;45345;-58
2022/05/04 06:07:24;;;;;;;;;17.50;17.00;;;;;19.60;38.55;101371.69;5077333;27;45350;-58
2022/05/04 06:09:50;;;;;;;;;19.50;14.75;;;;;19.58;38.68;101369.16;5077013;28;45390;-57
2022/05/04 06:12:15;;;;;;;;;18.25;15.75;;;;;19.59;38.77;101370.84;5077140;27;45325;-57
2022/05/04 06:14:41;;;;;;;;;23.50;17.50;;;;;19.58;38.69;101369.16;5076872;28;45455;-51
2022/05/04 06:17:06;;;;;;;;;16.50;15.25;;;;;19.59;38.67;101373.50;5077415;28;45539;-53
2022/05/04 06:19:31;;;;;;;;;15.67;15.67;;;;;19.56;38.71;101375.41;5076914;27;50049;-54
2022/05/04 06:21:58;;;;;;;;;12.50;12.50;;;;;19.56;38.48;101376.25;5076889;28;45242;-53
2022/05/04 06:24:24;;;;;;;;;22.00;17.00;;;;;19.56;38.62;101389.38;5077167;28;45255;-54
2022/05/04 06:26:49;;;;;;;;;15.75;11.00;;;;;19.56;38.60;101391.19;5077361;27;45520;-56
2022/05/04 06:29:14;;;;;;;;;17.00;15.25;;;;;19.56;38.53;101383.28;5076713;27;51954;-57
2022/05/04 06:34:24;;;;;;;;;19.00;16.25;;;;;19.58;38.44;101397.19;5076927;28;45228;-57
2022/05/04 06:36:50;;;;;;;;;16.25;16.25;;;;;19.56;38.36;101391.19;5075659;28;45530;-57
2022/05/04 06:39:15;;;;;;;;;20.00;16.00;;;;;19.56;38.77;101386.75;5075413;28;46265;-57
2022/05/04 06:41:41;;;;;;;;;15.00;15.00;;;;;19.59;38.24;101391.91;5076828;28;45378;-58
2022/05/04 06:44:07;;;;;;;;;16.25;15.00;;;;;19.59;38.38;101386.63;5076761;28;45371;-57
2022/05/04 06:46:33;;;;;;;;;18.75;15.75;;;;;19.60;38.43;101384.84;5076938;27;45534;-56
2022/05/04 06:48:58;;;;;;;;;18.75;16.25;;;;;19.59;38.51;101384.00;5076462;27;46314;-56
2022/05/04 06:51:24;;;;;;;;;16.50;15.00;;;;;19.58;38.76;101390.19;5076634;28;45278;-54
2022/05/04 06:53:49;;;;;;;;;17.50;14.75;;;;;19.59;38.27;101385.75;5075305;28;45436;-57
2022/05/04 06:56:15;;;;;;;;;14.25;14.25;;;;;19.60;38.78;101392.75;5076785;28;45561;-53
2022/05/04 06:58:40;;;;;;;;;18.00;14.50;;;;;19.60;38.36;101393.59;5076687;28;45607;-54
2022/05/04 07:01:07;;;;;;;;;22.50;16.75;;;;;19.55;38.84;101377.16;5076385;28;45199;-57
2022/05/04 07:03:32;;;;;;;;;17.75;14.75;;;;;19.62;38.40;101394.38;5076614;27;45343;-56
2022/05/04 07:05:58;;;;;;;;;18.00;16.00;;;;;19.62;38.40;101385.66;5077463;27;45506;-53
2022/05/04 07:08:23;;;;;;;;;18.25;15.25;;;;;19.63;38.34;101390.81;5079998;27;47099;-56
2022/05/04 07:10:49;;;;;;;;;18.25;15.00;;;;;19.63;38.55;101390.00;5079885;28;45390;-55
2022/05/04 07:13:14;;;;;;;;;18.25;16.50;;;;;19.65;38.32;101390.78;5079996;27;45227;-57
2022/05/04 07:15:40;;;;;;;;;18.00;15.75;;;;;19.66;38.30;101391.63;5079010;28;45327;-56
2022/05/04 07:18:05;;;;;;;;;19.25;17.50;;;;;19.67;38.65;101403.84;5079753;28;46170;-59
2022/05/04 07:20:32;;;;;;;;;16.75;15.00;;;;;19.66;38.84;101397.75;5079700;27;45905;-57
2022/05/04 07:22:57;;;;;;;;;16.75;14.25;;;;;19.67;38.52;101399.47;5079759;28;45381;-57
2022/05/04 07:25:23;;;;;;;;;20.00;16.25;;;;;19.69;38.18;101396.75;5080045;28;45543;-55
2022/05/04 07:27:48;;;;;;;;;19.25;14.75;;;;;19.69;38.21;101407.28;5079564;27;45388;-58
2022/05/04 07:30:14;;;;;;;;;21.75;15.50;;;;;19.70;38.03;101406.38;5080026;28;45441;-43
2022/05/04 07:32:39;;;;;;;;;17.50;15.50;;;;;19.69;38.11;101413.38;5080095;27;45338;-56
2022/05/04 07:35:08;;;;;;;;;19.25;17.00;;;;;19.69;38.31;101410.75;5079996;27;45581;-56
2022/05/04 07:37:34;;;;;;;;;19.75;17.00;;;;;19.71;38.68;101415.97;5078187;28;48246;-53
2022/05/04 07:42:43;;;;;;;;;16.50;14.00;;;;;19.69;38.65;101413.38;5079851;28;45317;-55
2022/05/04 07:45:11;;;;;;;;;23.00;15.50;;;;;19.71;38.56;101418.59;5079543;28;45312;-51
2022/05/04 07:47:37;;;;;;;;;19.50;17.25;;;;;19.72;38.57;101422.94;5078906;27;45426;-58
2022/05/04 07:50:05;;;;;;;;;16.75;16.75;;;;;19.71;38.29;101419.44;5079242;27;45371;-55
2022/05/04 07:52:30;;;;;;;;;20.25;16.00;;;;;19.72;38.22;101422.94;5079725;27;46030;-55
2022/05/04 07:54:56;;;;;;;;;19.75;16.75;;;;;19.73;38.09;101414.13;5079485;28;45377;-58
2022/05/04 07:57:21;;;;;;;;;22.50;16.50;;;;;19.75;38.55;101423.66;5079191;28;46057;-53
2022/05/04 08:04:16;;;;;;;;;23.25;18.50;;;;;19.75;38.33;101422.78;5079318;28;45292;-55
2022/05/04 08:05:21;;;;;;;;;25.00;19.00;;;;;19.76;38.66;101428.00;5079468;28;45333;-57
2022/05/04 08:07:46;;;;;;;;;17.75;16.50;;;;;19.74;38.56;101419.31;5077971;28;45486;-45
2022/05/04 08:10:12;;;;;;;;;20.75;16.25;;;;;19.77;38.63;101421.81;5079347;27;45330;-56
2022/05/04 08:12:37;;;;;;;;;17.25;17.00;;;;;19.78;38.34;101422.66;5079113;28;45318;-52
2022/05/04 08:15:03;;;;;;;;;15.50;15.50;;;;;19.78;38.29;101418.28;5079294;27;45314;-50
2022/05/04 08:17:28;;;;;;;;;26.00;19.00;;;;;19.78;38.66;101418.28;5078712;27;46464;-55
2022/05/04 08:19:54;;;;;;;;;17.50;16.50;;;;;19.80;37.94;101422.59;5078984;27;45410;-57
2022/05/04 08:22:19;;;;;;;;;17.50;16.25;;;;;19.80;38.16;101426.09;5078402;28;45306;-56
2022/05/04 08:24:45;;;;;;;;;15.50;13.50;;;;;19.80;38.25;101419.94;5079489;27;45526;-56
2022/05/04 08:27:10;;;;;;;;;17.75;16.50;;;;;19.81;38.58;101427.78;5078768;27;45399;-56
2022/05/04 08:29:35;;;;;;;;;19.75;16.00;;;;;19.82;38.72;101426.88;5078655;28;45242;-55
2022/05/04 08:32:01;;;;;;;;;16.75;16.00;;;;;19.83;38.50;101425.09;5078660;27;45230;-53
2022/05/04 08:34:26;;;;;;;;;15.25;14.75;;;;;19.84;38.44;101429.44;5078882;28;45688;-49
2022/05/04 08:36:52;;;;;;;;;19.25;17.00;;;;;19.84;38.43;101426.81;5078523;28;45346;-53
2022/05/04 08:39:17;;;;;;;;;19.75;17.00;;;;;19.82;38.60;101423.38;5078944;28;45260;-46
2022/05/04 08:41:43;;;;;;;;;17.25;17.25;;;;;19.86;38.04;101423.22;5078895;28;45708;-52
2022/05/04 08:44:11;;;;;;;;;17.25;16.50;;;;;19.87;38.84;101424.09;5078803;27;45219;-45
2022/05/04 08:46:40;;;;;;;;;22.75;17.00;;;;;19.88;38.15;101417.91;5078424;27;46272;-51
2022/05/04 08:49:06;;;;;;;;;21.25;17.75;;;;;19.86;38.17;101412.69;5078540;27;45820;-53
2022/05/04 08:51:32;;;;;;;;;20.00;16.25;;;;;19.89;38.16;101417.81;5078584;28;45319;-51
2022/05/04 08:53:57;;;;;;;;;21.00;17.00;;;;;19.89;38.26;101419.63;5078583;27;45461;-49
2022/05/04 08:56:23;;;;;;;;;18.25;17.00;;;;;19.92;38.12;101435.25;5078091;27;46172;-53
2022/05/04 08:58:48;;;;;;;;;20.25;17.25;;;;;19.93;38.29;101429.94;5078555;27;45315;-56
2022/05/04 09:01:14;;;;;;;;;20.25;19.25;;;;;19.94;38.57;101433.41;5078639;27;45669;-57
2022/05/04 09:03:39;;;;;;;;;20.25;19.50;;;;;19.95;38.20;101432.50;5077263;28;45648;-58
2022/05/04 09:06:05;;;;;;;;;25.00;20.25;;;;;19.96;38.30;101425.44;5078183;27;46277;-58
2022/05/04 09:08:54;;;;;;;;;20.50;18.50;;;;;19.97;38.18;101438.53;5094084;27;45986;-57
2022/05/04 09:11:22;;;;;;;;;16.25;13.50;;;;;19.98;38.59;101440.25;5078442;27;45428;-56
2022/05/04 09:13:48;;;;;;;;;17.25;16.00;;;;;19.98;38.62;101442.88;5078651;27;45267;-56
2022/05/04 09:16:28;;;;;;;;;21.25;17.25;;;;;20.00;38.79;101442.81;5078049;27;45236;-54
2022/05/04 09:18:53;;;;;;;;;18.00;15.75;;;;;20.01;38.57;101437.47;5078125;27;45378;-56
2022/05/04 09:21:22;;;;;;;;;20.75;16.25;;;;;20.00;38.50;101443.69;5078371;27;45321;-53
2022/05/04 09:23:52;;;;;;;;;21.00;17.25;;;;;20.01;38.40;101440.09;5078597;27;45293;-51
2022/05/04 09:26:19;;;;;;;;;26.25;18.25;;;;;20.05;38.47;101448.75;5078205;27;47065;-51
2022/05/04 09:28:48;;;;;;;;;16.75;15.75;;;;;20.04;37.93;101439.13;5077146;27;46089;-57
2022/05/04 09:31:14;;;;;;;;;19.75;15.00;;;;;20.05;38.37;101436.44;5078022;27;45315;-49
2022/05/04 09:33:40;;;;;;;;;18.00;17.00;;;;;20.05;38.60;101436.44;5078138;27;46100;-46
2022/05/04 09:36:06;;;;;;;;;24.75;16.75;;;;;20.05;38.47;101433.78;5077407;28;46147;-51
2022/05/04 09:46:52;;;;;;;;;21.25;18.75;;;;;20.07;38.38;101424.06;5077839;28;45322;-49
2022/05/04 09:49:18;;;;;;;;;16.75;14.50;;;;;20.06;38.21;101414.47;5077829;27;45307;-51
2022/05/04 09:51:50;;;;;;;;;17.25;14.50;;;;;20.07;38.37;101421.44;5077589;27;45343;-46
2022/05/04 09:54:21;;;;;;;;;20.25;18.25;;;;;20.08;38.52;101414.38;5078162;27;45446;-47
2022/05/04 09:57:07;;;;;;;;;17.25;16.00;;;;;20.08;38.03;101409.13;5077768;27;45436;-51
2022/05/04 09:59:34;;;;;;;;;14.50;12.50;;;;;20.10;38.12;101412.53;5077552;27;46017;-53
2022/05/04 10:02:04;;;;;;;;;21.50;16.50;;;;;20.10;38.47;101411.69;5077475;27;45420;-51
2022/05/04 10:04:33;;;;;;;;;15.25;14.75;;;;;20.12;38.46;101415.13;5077733;27;45327;-51
2022/05/04 10:07:00;;;;;;;;;16.50;16.25;;;;;20.12;38.52;101415.13;5077302;27;46343;-46
2022/05/04 10:09:25;;;;;;;;;18.25;16.75;;;;;20.14;38.46;101419.38;5077388;27;45374;-51
2022/05/04 10:11:56;;;;;;;;;20.00;16.75;;;;;20.15;38.41;101407.06;5077539;28;45359;-46
2022/05/04 10:14:23;;;;;;;;;20.75;18.25;;;;;20.12;38.49;101407.22;5077561;27;45904;-44
2022/05/04 10:16:57;;;;;;;;;17.75;15.50;;;;;20.14;38.00;101410.63;5077308;28;47253;-56
2022/05/04 10:19:30;;;;;;;;;22.25;18.25;;;;;20.12;37.89;101405.44;5077537;28;45962;-55
2022/05/04 10:22:00;;;;;;;;;20.50;15.75;;;;;20.16;38.20;101406.16;5077115;27;45337;-54
2022/05/04 10:24:30;;;;;;;;;14.75;14.50;;;;;20.15;38.54;101407.06;5077359;27;45464;-48
2022/05/04 10:27:15;;;;;;;;;17.50;14.25;;;;;20.18;38.04;101409.56;5076718;27;46345;-58
2022/05/04 10:32:31;;;;;;;;;17.50;14.75;;;;;20.18;38.25;101412.19;5076974;28;45340;-58
2022/05/04 10:35:13;;;;;;;;;16.75;15.50;;;;;20.19;38.01;101413.91;5077149;28;45356;-57
2022/05/04 10:37:52;;;;;;;;;15.75;14.50;;;;;20.17;38.08;101410.50;5076618;27;45330;-57
2022/05/04 10:40:36;;;;;;;;;18.25;15.00;;;;;20.21;37.99;101425.22;5075817;27;45823;-56
2022/05/04 10:43:11;;;;;;;;;18.00;14.75;;;;;20.21;38.16;101427.88;5076723;27;45301;-59
2022/05/04 10:45:42;;;;;;;;;14.75;13.50;;;;;20.22;37.96;101425.16;5077070;27;45371;-57
2022/05/04 10:48:13;;;;;;;;;14.00;12.00;;;;;20.24;38.32;101430.34;5076655;27;45403;-56
2022/05/04 10:50:52;;;;;;;;;22.00;18.25;;;;;20.24;37.80;101419.81;5076493;28;45959;-54
2022/05/04 10:53:23;;;;;;;;;15.25;14.00;;;;;20.25;37.61;101429.41;5076751;27;45430;-56
2022/05/04 10:56:01;;;;;;;;;17.25;16.25;;;;;20.26;38.23;101427.66;5076771;28;45306;-54
2022/05/04 10:58:36;;;;;;;;;12.25;10.50;;;;;20.25;37.81;101432.06;5076379;28;46330;-54
2022/05/04 11:01:11;;;;;;;;;13.50;13.50;;;;;20.24;37.59;101419.81;5076461;27;45362;-52
2022/05/04 11:03:49;;;;;;;;;14.50;13.75;;;;;20.26;37.97;101432.91;5076590;27;45458;-45
2022/05/04 11:06:35;;;;;;;;;15.00;14.00;;;;;20.28;37.83;101415.28;5076832;27;45318;-48
2022/05/04 11:09:10;;;;;;;;;10.00;9.25;;;;;20.26;38.05;101420.59;5076303;27;46057;-47
2022/05/04 11:11:44;;;;;;;;;17.75;15.00;;;;;20.29;38.12;101423.09;5076296;27;46044;-45
2022/05/04 11:14:11;;;;;;;;;11.50;10.50;;;;;20.28;37.53;101408.22;5076254;27;45379;-52
2022/05/04 11:16:38;;;;;;;;;14.25;14.00;;;;;20.30;38.15;101406.38;5076610;27;45249;-53
2022/05/04 11:19:05;;;;;;;;;11.75;11.25;;;;;20.30;37.73;101406.38;5074557;28;47916;-53
2022/05/04 11:21:32;;;;;;;;;12.25;12.25;;;;;20.30;37.76;101409.03;5076235;27;45421;-50
2022/05/04 11:24:00;;;;;;;;;14.00;12.75;;;;;20.31;37.72;101405.47;5076561;28;45283;-52
2022/05/04 11:26:34;;;;;;;;;13.00;12.00;;;;;20.31;37.92;101399.34;5076898;27;45305;-51
2022/05/04 11:28:59;;;;;;;;;11.00;11.00;;;;;20.29;38.08;101394.16;5076180;27;46306;-53
2022/05/04 11:31:24;;;;;;;;;12.00;12.00;;;;;20.31;37.39;101388.81;5076433;28;45353;-45
2022/05/04 11:33:50;;;;;;;;;11.75;11.25;;;;;20.31;37.74;101405.47;5076200;28;45306;-47
2022/05/04 11:36:22;;;;;;;;;16.00;14.75;;;;;20.31;37.53;101405.47;5075101;28;45255;-48
2022/05/04 11:38:49;;;;;;;;;12.25;10.50;;;;;20.30;37.39;101409.03;5076019;27;45456;-45